createdAt,value
2022-07-31T00:00:51.002Z,22.41
2022-07-31T00:03:19.546Z,22.66
2022-07-31T00:05:47.996Z,22.70
2022-07-31T00:08:16.453Z,22.72
2022-07-31T00:10:44.838Z,22.79
2022-07-31T00:13:14.386Z,22.38
2022-07-31T00:15:44.181Z,22.43
2022-07-31T00:18:12.574Z,22.43
2022-07-31T00:20:41.022Z,22.23
2022-07-31T00:23:10.925Z,21.65
2022-07-31T00:25:39.879Z,21.63
2022-07-31T00:28:08.595Z,20.87
2022-07-31T00:30:36.971Z,21.13
2022-07-31T00:33:07.028Z,20.97
2022-07-31T00:35:35.384Z,20.70
2022-07-31T00:40:52.650Z,20.25
2022-07-31T00:43:21.051Z,20.08
2022-07-31T00:45:58.609Z,20.16
2022-07-31T00:48:29.090Z,20.27
2022-07-31T00:50:58.252Z,20.35
2022-07-31T00:53:26.681Z,20.05
2022-07-31T00:55:55.012Z,20.05
2022-07-31T00:58:23.388Z,20.68
2022-07-31T01:00:51.874Z,20.54
2022-07-31T01:03:20.405Z,20.40
2022-07-31T01:05:50.151Z,20.82
2022-07-31T01:08:18.527Z,20.54
2022-07-31T01:10:55.796Z,20.22
2022-07-31T01:13:32.872Z,20.27
2022-07-31T01:16:02.646Z,20.92
2022-07-31T01:18:34.465Z,21.25
2022-07-31T01:21:07.521Z,21.55
2022-07-31T01:23:58.396Z,21.63
2022-07-31T01:26:39.322Z,21.49
2022-07-31T01:29:23.098Z,21.89
2022-07-31T01:31:57.296Z,21.89
2022-07-31T01:34:33.392Z,21.55
2022-07-31T01:37:10.639Z,21.18
2022-07-31T01:39:44.547Z,20.85
2022-07-31T01:42:15.757Z,21.28
2022-07-31T01:44:49.313Z,21.28
2022-07-31T01:47:21.180Z,21.51
2022-07-31T01:49:51.428Z,21.57
2022-07-31T01:52:21.637Z,20.71
2022-07-31T01:54:51.414Z,21.39
2022-07-31T01:57:21.481Z,21.55
2022-07-31T01:59:54.587Z,21.66
2022-07-31T02:02:24.158Z,21.75
2022-07-31T02:04:53.622Z,21.83
2022-07-31T02:07:22.529Z,21.84
2022-07-31T02:09:57.905Z,21.89
2022-07-31T02:12:32.242Z,21.88
2022-07-31T02:15:05.603Z,21.80
2022-07-31T02:17:35.116Z,21.89
2022-07-31T02:20:05.715Z,21.96
2022-07-31T02:22:35.047Z,21.93
2022-07-31T02:25:04.075Z,21.95
2022-07-31T02:27:53.942Z,21.92
2022-07-31T02:30:24.231Z,21.87
2022-07-31T02:32:53.897Z,21.76
2022-07-31T02:35:23.386Z,21.71
2022-07-31T02:37:53.487Z,21.60
2022-07-31T02:40:22.732Z,21.77
2022-07-31T02:42:51.754Z,21.75
2022-07-31T02:45:20.557Z,21.72
2022-07-31T02:47:50.473Z,21.77
2022-07-31T02:50:20.224Z,21.73
2022-07-31T02:52:49.361Z,21.05
2022-07-31T02:55:18.776Z,21.44
2022-07-31T02:57:48.498Z,21.55
2022-07-31T03:00:23.160Z,21.65
2022-07-31T03:02:53.866Z,21.67
2022-07-31T03:05:22.513Z,21.58
2022-07-31T03:07:51.113Z,21.56
2022-07-31T03:10:19.898Z,21.49
2022-07-31T03:12:51.704Z,21.56
2022-07-31T03:15:24.289Z,21.45
2022-07-31T03:17:55.132Z,20.88
2022-07-31T03:20:24.838Z,21.26
2022-07-31T03:22:53.286Z,21.41
2022-07-31T03:25:22.376Z,21.52
2022-07-31T03:27:52.323Z,21.65
2022-07-31T03:30:26.201Z,21.69
2022-07-31T03:32:57.096Z,20.63
2022-07-31T03:35:27.279Z,21.27
2022-07-31T03:37:55.746Z,20.47
2022-07-31T03:40:24.215Z,20.94
2022-07-31T03:42:53.905Z,21.40
2022-07-31T03:45:23.052Z,21.50
2022-07-31T03:47:51.845Z,21.51
2022-07-31T03:50:22.627Z,21.78
2022-07-31T03:52:51.950Z,21.53
2022-07-31T03:55:20.650Z,21.90
2022-07-31T03:57:49.780Z,21.90
2022-07-31T04:00:20.601Z,21.92
2022-07-31T04:02:49.118Z,22.03
2022-07-31T04:05:17.622Z,22.05
2022-07-31T04:07:47.369Z,22.15
2022-07-31T04:10:15.967Z,21.33
2022-07-31T04:12:44.321Z,21.95
2022-07-31T04:15:12.767Z,21.96
2022-07-31T04:17:41.131Z,22.09
2022-07-31T04:20:11.417Z,22.23
2022-07-31T04:22:40.066Z,21.89
2022-07-31T04:25:11.022Z,22.39
2022-07-31T04:27:48.336Z,22.23
2022-07-31T04:30:16.963Z,22.49
2022-07-31T04:32:45.405Z,22.53
2022-07-31T04:35:14.432Z,22.01
2022-07-31T04:37:48.050Z,22.31
2022-07-31T04:40:18.368Z,22.45
2022-07-31T04:42:46.748Z,22.45
2022-07-31T04:45:15.130Z,22.25
2022-07-31T04:47:43.471Z,22.46
2022-07-31T04:50:12.097Z,22.60
2022-07-31T04:52:40.450Z,22.47
2022-07-31T04:55:09.582Z,22.51
2022-07-31T04:57:39.370Z,22.71
2022-07-31T05:00:09.696Z,22.79
2022-07-31T05:02:38.248Z,23.00
2022-07-31T05:05:07.569Z,23.00
2022-07-31T05:07:35.977Z,22.93
2022-07-31T05:10:04.795Z,23.08
2022-07-31T05:12:33.147Z,22.82
2022-07-31T05:15:03.023Z,23.03
2022-07-31T05:17:31.444Z,22.99
2022-07-31T05:19:59.818Z,23.17
2022-07-31T05:22:28.186Z,23.32
2022-07-31T05:24:56.605Z,22.97
2022-07-31T05:27:24.904Z,23.38
2022-07-31T05:29:57.674Z,23.59
2022-07-31T05:32:27.426Z,23.34
2022-07-31T05:34:55.824Z,23.63
2022-07-31T05:37:26.288Z,23.69
2022-07-31T05:39:54.654Z,23.78
2022-07-31T05:42:23.083Z,22.86
2022-07-31T05:44:51.601Z,22.40
2022-07-31T05:47:19.959Z,22.33
2022-07-31T05:49:49.781Z,22.74
2022-07-31T05:52:19.042Z,23.13
2022-07-31T05:54:47.446Z,23.17
2022-07-31T05:57:33.417Z,23.25
2022-07-31T06:00:04.233Z,23.67
2022-07-31T06:02:32.782Z,23.00
2022-07-31T06:05:02.762Z,22.83
2022-07-31T06:07:31.175Z,22.62
2022-07-31T06:09:59.529Z,23.15
2022-07-31T06:12:27.969Z,23.23
2022-07-31T06:14:56.338Z,24.17
2022-07-31T06:17:24.790Z,23.92
2022-07-31T06:20:11.653Z,23.84
2022-07-31T06:22:40.857Z,23.86
2022-07-31T06:25:10.235Z,24.85
2022-07-31T06:27:42.202Z,24.68
2022-07-31T06:30:12.099Z,24.73
2022-07-31T06:32:40.817Z,25.32
2022-07-31T06:35:11.707Z,25.22
2022-07-31T06:37:40.114Z,24.52
2022-07-31T06:40:09.356Z,25.29
2022-07-31T06:42:38.438Z,25.52
2022-07-31T06:45:07.566Z,25.50
2022-07-31T06:47:35.882Z,25.85
2022-07-31T06:50:05.085Z,25.65
2022-07-31T06:52:34.930Z,25.42
2022-07-31T06:55:03.738Z,25.93
2022-07-31T06:57:32.207Z,26.03
2022-07-31T07:00:04.237Z,26.05
2022-07-31T07:02:35.280Z,26.53
2022-07-31T07:05:06.630Z,26.94
2022-07-31T07:07:38.716Z,27.49
2022-07-31T07:10:07.630Z,27.49
2022-07-31T07:12:35.951Z,27.39
2022-07-31T07:15:04.373Z,27.73
2022-07-31T07:17:32.722Z,28.38
2022-07-31T07:20:01.082Z,27.85
2022-07-31T07:22:31.293Z,27.27
2022-07-31T07:25:02.294Z,28.36
2022-07-31T07:27:30.686Z,28.82
2022-07-31T07:30:00.490Z,28.71
2022-07-31T07:32:28.797Z,28.01
2022-07-31T07:35:00.260Z,28.12
2022-07-31T07:37:30.205Z,28.43
2022-07-31T07:40:03.707Z,28.73
2022-07-31T07:42:33.113Z,28.83
2022-07-31T07:45:02.220Z,28.91
2022-07-31T07:48:05.151Z,29.28
2022-07-31T07:50:27.140Z,28.96
2022-07-31T07:52:57.827Z,30.22
2022-07-31T07:55:27.636Z,30.31
2022-07-31T07:58:08.832Z,29.92
2022-07-31T08:00:40.180Z,31.16
2022-07-31T08:03:49.995Z,30.92
2022-07-31T08:05:56.771Z,30.80
2022-07-31T08:08:25.135Z,30.65
2022-07-31T08:10:54.884Z,30.53
2022-07-31T08:13:23.265Z,30.86
2022-07-31T08:15:51.582Z,30.74
2022-07-31T08:18:19.872Z,31.85
2022-07-31T08:20:48.197Z,32.13
2022-07-31T08:23:18.322Z,31.87
2022-07-31T08:25:46.753Z,31.14
2022-07-31T08:28:19.438Z,31.30
2022-07-31T08:30:52.393Z,30.91
2022-07-31T08:33:20.761Z,31.08
2022-07-31T08:35:50.770Z,31.74
2022-07-31T08:38:19.848Z,32.13
2022-07-31T08:40:48.173Z,32.16
2022-07-31T08:46:08.080Z,32.74
2022-07-31T08:48:41.765Z,33.04
2022-07-31T08:51:13.866Z,33.56
2022-07-31T08:53:45.321Z,34.16
2022-07-31T08:56:14.324Z,34.68
2022-07-31T08:58:44.762Z,33.88
2022-07-31T09:01:13.453Z,33.25
2022-07-31T09:03:41.958Z,33.47
2022-07-31T09:06:11.014Z,33.37
2022-07-31T09:08:39.968Z,33.58
2022-07-31T09:11:09.530Z,34.15
2022-07-31T09:13:37.908Z,32.94
2022-07-31T09:16:08.259Z,33.48
2022-07-31T09:18:36.681Z,33.88
2022-07-31T09:21:08.102Z,34.22
2022-07-31T09:23:46.919Z,34.55
2022-07-31T09:26:15.571Z,34.62
2022-07-31T09:28:45.273Z,34.07
2022-07-31T09:31:15.239Z,35.03
2022-07-31T09:33:45.910Z,35.30
2022-07-31T09:36:15.060Z,36.09
2022-07-31T09:38:44.933Z,35.20
2022-07-31T09:41:56.637Z,34.72
2022-07-31T09:44:09.953Z,34.80
2022-07-31T09:46:44.666Z,35.02
2022-07-31T09:49:13.110Z,35.39
2022-07-31T09:51:42.064Z,35.55
2022-07-31T09:54:22.214Z,35.18
2022-07-31T09:56:51.070Z,35.24
2022-07-31T09:59:19.791Z,36.08
2022-07-31T10:01:50.702Z,35.86
2022-07-31T10:04:20.166Z,35.45
2022-07-31T10:06:50.051Z,34.97
2022-07-31T10:09:20.873Z,35.37
2022-07-31T10:11:51.501Z,35.76
2022-07-31T10:14:25.586Z,36.26
2022-07-31T10:16:58.379Z,35.97
2022-07-31T10:19:32.480Z,36.65
2022-07-31T10:22:04.967Z,35.87
2022-07-31T10:24:34.565Z,36.11
2022-07-31T10:27:10.517Z,36.64
2022-07-31T10:29:40.466Z,37.45
2022-07-31T10:32:10.978Z,38.35
2022-07-31T10:34:39.879Z,37.56
2022-07-31T10:37:14.826Z,35.83
2022-07-31T10:39:51.193Z,35.79
2022-07-31T10:42:31.041Z,36.67
2022-07-31T10:45:06.744Z,37.40
2022-07-31T10:47:37.033Z,37.44
2022-07-31T10:50:06.503Z,36.55
2022-07-31T10:52:37.281Z,36.92
2022-07-31T10:55:17.010Z,36.05
2022-07-31T10:57:56.071Z,35.89
2022-07-31T11:00:30.006Z,35.23
2022-07-31T11:03:00.073Z,35.39
2022-07-31T11:05:28.668Z,36.37
2022-07-31T11:08:03.584Z,35.98
2022-07-31T11:10:34.251Z,36.37
2022-07-31T11:13:04.518Z,37.43
2022-07-31T11:15:33.771Z,37.29
2022-07-31T11:18:24.057Z,37.55
2022-07-31T11:21:09.499Z,37.74
2022-07-31T11:23:56.372Z,37.18
2022-07-31T11:26:33.454Z,36.84
2022-07-31T11:29:59.798Z,35.99
2022-07-31T11:32:01.979Z,35.87
2022-07-31T11:34:31.866Z,37.05
2022-07-31T11:37:00.193Z,37.50
2022-07-31T11:39:37.123Z,37.46
2022-07-31T11:42:07.362Z,37.61
2022-07-31T11:44:36.544Z,38.64
2022-07-31T11:48:10.252Z,38.44
2022-07-31T11:50:03.473Z,37.51
2022-07-31T11:52:37.234Z,37.93
2022-07-31T11:55:09.616Z,38.65
2022-07-31T11:57:50.759Z,38.00
2022-07-31T12:00:26.783Z,37.98
2022-07-31T12:02:58.675Z,37.88
2022-07-31T12:05:37.771Z,38.17
2022-07-31T12:08:07.337Z,38.33
2022-07-31T12:10:35.874Z,38.60
2022-07-31T12:13:04.523Z,37.40
2022-07-31T12:15:32.948Z,37.25
2022-07-31T12:18:02.991Z,36.87
2022-07-31T12:20:36.553Z,37.38
2022-07-31T12:23:06.891Z,37.43
2022-07-31T12:25:42.597Z,36.77
2022-07-31T12:28:11.454Z,36.69
2022-07-31T12:30:39.799Z,37.10
2022-07-31T12:33:09.178Z,37.10
2022-07-31T12:35:55.021Z,35.51
2022-07-31T12:38:45.096Z,34.13
2022-07-31T12:41:14.486Z,33.51
2022-07-31T12:43:51.317Z,33.66
2022-07-31T12:46:22.520Z,34.54
2022-07-31T12:48:51.281Z,34.95
2022-07-31T12:51:45.330Z,34.30
2022-07-31T12:54:10.292Z,33.76
2022-07-31T12:56:39.660Z,34.54
2022-07-31T12:59:09.315Z,34.22
2022-07-31T13:01:38.303Z,32.82
2022-07-31T13:04:07.980Z,34.83
2022-07-31T13:06:51.663Z,35.39
2022-07-31T13:09:20.399Z,35.25
2022-07-31T13:11:49.903Z,35.25
2022-07-31T13:14:21.818Z,35.99
2022-07-31T13:16:52.140Z,36.76
2022-07-31T13:19:20.514Z,36.79
2022-07-31T13:21:50.453Z,36.81
2022-07-31T13:24:20.486Z,37.01
2022-07-31T13:26:49.269Z,36.16
2022-07-31T13:29:18.096Z,35.94
2022-07-31T13:31:46.795Z,34.80
2022-07-31T13:34:15.198Z,35.19
2022-07-31T13:36:43.553Z,34.38
2022-07-31T13:39:13.242Z,34.54
2022-07-31T13:41:41.991Z,35.04
2022-07-31T13:44:10.716Z,35.29
2022-07-31T13:46:39.073Z,34.74
2022-07-31T13:49:10.666Z,34.93
2022-07-31T13:51:40.128Z,34.91
2022-07-31T13:54:08.800Z,34.62
2022-07-31T13:56:43.293Z,34.58
2022-07-31T13:59:15.061Z,34.21
2022-07-31T14:02:12.966Z,33.82
2022-07-31T14:04:38.430Z,33.46
2022-07-31T14:07:08.241Z,33.85
2022-07-31T14:09:37.772Z,33.59
2022-07-31T14:12:08.629Z,33.42
2022-07-31T14:14:37.936Z,33.73
2022-07-31T14:17:06.310Z,33.82
2022-07-31T14:19:40.988Z,32.91
2022-07-31T14:22:14.357Z,32.88
2022-07-31T14:24:49.910Z,32.51
2022-07-31T14:27:21.956Z,32.87
2022-07-31T14:29:50.675Z,33.38
2022-07-31T14:32:19.469Z,34.09
2022-07-31T14:34:47.947Z,34.02
2022-07-31T14:37:16.432Z,33.92
2022-07-31T14:39:45.113Z,34.11
2022-07-31T14:42:13.830Z,34.08
2022-07-31T14:44:43.679Z,33.81
2022-07-31T14:47:12.951Z,33.68
2022-07-31T14:50:09.751Z,32.32
2022-07-31T14:52:30.758Z,32.94
2022-07-31T14:55:01.026Z,32.52
2022-07-31T14:57:30.050Z,32.31
2022-07-31T15:00:00.097Z,32.34
2022-07-31T15:02:28.788Z,32.96
2022-07-31T15:04:57.200Z,32.61
2022-07-31T15:07:35.201Z,33.03
2022-07-31T15:10:05.672Z,32.82
2022-07-31T15:12:34.053Z,32.40
2022-07-31T15:15:04.049Z,32.10
2022-07-31T15:17:32.468Z,31.77
2022-07-31T15:20:00.885Z,31.57
2022-07-31T15:22:29.271Z,31.26
2022-07-31T15:24:57.632Z,32.21
2022-07-31T15:27:26.094Z,32.33
2022-07-31T15:30:03.517Z,31.54
2022-07-31T15:32:37.518Z,31.01
2022-07-31T15:35:07.655Z,31.19
2022-07-31T15:37:37.520Z,31.27
2022-07-31T15:40:07.787Z,31.26
2022-07-31T15:42:40.717Z,31.65
2022-07-31T15:45:10.767Z,31.52
2022-07-31T15:47:41.238Z,31.81
2022-07-31T15:50:11.389Z,31.58
2022-07-31T15:52:40.034Z,30.56
2022-07-31T15:55:10.155Z,30.87
2022-07-31T15:57:38.533Z,30.76
2022-07-31T16:00:09.626Z,30.87
2022-07-31T16:02:38.081Z,30.63
2022-07-31T16:05:11.233Z,30.85
2022-07-31T16:08:30.765Z,30.85
2022-07-31T16:10:28.430Z,30.54
2022-07-31T16:12:56.715Z,30.25
2022-07-31T16:15:26.381Z,30.19
2022-07-31T16:17:54.918Z,30.45
2022-07-31T16:20:26.300Z,30.56
2022-07-31T16:22:57.104Z,30.69
2022-07-31T16:25:26.596Z,30.74
2022-07-31T16:27:55.370Z,30.59
2022-07-31T16:30:26.341Z,30.39
2022-07-31T16:32:55.405Z,30.50
2022-07-31T16:35:26.441Z,30.54
2022-07-31T16:37:54.929Z,29.78
2022-07-31T16:40:28.836Z,29.89
2022-07-31T16:42:58.045Z,29.87
2022-07-31T16:45:27.204Z,29.41
2022-07-31T16:47:55.545Z,29.23
2022-07-31T16:50:25.788Z,29.31
2022-07-31T16:52:55.037Z,29.13
2022-07-31T16:55:53.081Z,29.10
2022-07-31T16:58:13.851Z,28.75
2022-07-31T17:00:42.421Z,28.48
2022-07-31T17:04:01.489Z,28.55
2022-07-31T17:06:00.636Z,28.45
2022-07-31T17:08:29.992Z,28.77
2022-07-31T17:10:58.496Z,28.91
2022-07-31T17:13:26.976Z,28.06
2022-07-31T17:15:55.330Z,27.65
2022-07-31T17:18:25.467Z,27.41
2022-07-31T17:20:55.722Z,27.35
2022-07-31T17:23:43.230Z,27.42
2022-07-31T17:26:21.096Z,27.53
2022-07-31T17:28:50.700Z,27.58
2022-07-31T17:31:19.907Z,27.48
2022-07-31T17:33:59.769Z,27.73
2022-07-31T17:36:29.564Z,27.62
2022-07-31T17:38:59.321Z,28.08
2022-07-31T17:41:27.928Z,28.13
2022-07-31T17:43:56.568Z,27.82
2022-07-31T17:46:34.561Z,27.56
2022-07-31T17:49:08.390Z,27.39
2022-07-31T17:51:36.884Z,27.23
2022-07-31T17:54:09.117Z,27.40
2022-07-31T17:56:37.616Z,27.64
2022-07-31T17:59:06.462Z,27.69
2022-07-31T18:01:35.545Z,27.64
2022-07-31T18:04:04.343Z,27.24
2022-07-31T18:06:32.801Z,26.85
2022-07-31T18:09:01.319Z,26.46
2022-07-31T18:11:31.802Z,26.77
2022-07-31T18:14:02.994Z,26.95
2022-07-31T18:16:32.113Z,26.78
2022-07-31T18:19:00.631Z,26.17
2022-07-31T18:21:29.078Z,25.76
2022-07-31T18:23:59.923Z,26.02
2022-07-31T18:26:35.344Z,26.29
2022-07-31T18:29:03.737Z,26.06
2022-07-31T18:31:35.500Z,26.43
2022-07-31T18:34:05.581Z,26.53
2022-07-31T18:36:34.481Z,26.36
2022-07-31T18:39:03.064Z,26.10
2022-07-31T18:41:34.220Z,25.55
2022-07-31T18:44:02.805Z,25.71
2022-07-31T18:46:32.386Z,25.32
2022-07-31T18:49:01.151Z,24.78
2022-07-31T18:51:30.636Z,25.19
2022-07-31T18:53:59.194Z,25.00
2022-07-31T18:56:27.600Z,25.31
2022-07-31T18:58:57.388Z,25.63
2022-07-31T19:01:25.881Z,25.18
2022-07-31T19:03:55.452Z,25.69
2022-07-31T19:06:25.918Z,25.71
2022-07-31T19:08:54.278Z,25.24
2022-07-31T19:11:23.485Z,25.04
2022-07-31T19:13:52.063Z,23.82
2022-07-31T19:16:21.862Z,24.49
2022-07-31T19:18:50.589Z,25.02
2022-07-31T19:21:23.988Z,25.48
2022-07-31T19:24:09.277Z,25.90
2022-07-31T19:26:38.512Z,26.05
2022-07-31T19:29:07.305Z,26.19
2022-07-31T19:31:37.636Z,26.26
2022-07-31T19:34:06.049Z,26.18
2022-07-31T19:36:34.465Z,26.22
2022-07-31T19:39:02.908Z,26.18
2022-07-31T19:41:32.856Z,26.22
2022-07-31T19:44:01.432Z,25.97
2022-07-31T19:46:29.886Z,25.29
2022-07-31T19:48:59.741Z,25.50
2022-07-31T19:51:28.137Z,25.81
2022-07-31T19:53:56.502Z,26.01
2022-07-31T19:56:25.079Z,26.11
2022-07-31T19:58:53.483Z,26.18
2022-07-31T20:01:22.018Z,26.29
2022-07-31T20:03:51.111Z,26.32
2022-07-31T20:06:38.534Z,25.01
2022-07-31T20:09:07.053Z,24.90
2022-07-31T20:11:35.453Z,25.00
2022-07-31T20:14:03.826Z,24.93
2022-07-31T20:16:32.946Z,24.98
2022-07-31T20:19:01.651Z,24.91
2022-07-31T20:21:35.263Z,25.18
2022-07-31T20:24:03.809Z,25.56
2022-07-31T20:26:36.451Z,24.86
2022-07-31T20:29:05.639Z,25.54
2022-07-31T20:31:35.389Z,25.72
2022-07-31T20:34:03.941Z,25.67
2022-07-31T20:36:33.737Z,25.76
2022-07-31T20:39:02.089Z,25.63
2022-07-31T20:41:30.509Z,25.70
2022-07-31T20:43:59.920Z,25.77
2022-07-31T20:46:28.884Z,25.51
2022-07-31T20:48:59.220Z,25.63
2022-07-31T20:51:27.749Z,25.13
2022-07-31T20:53:57.561Z,25.20
2022-07-31T20:56:25.933Z,25.45
2022-07-31T20:58:54.980Z,25.53
2022-07-31T21:01:23.562Z,25.12
2022-07-31T21:03:52.022Z,25.19
2022-07-31T21:06:21.075Z,24.22
2022-07-31T21:08:49.554Z,24.01
2022-07-31T21:11:20.315Z,23.92
2022-07-31T21:13:48.840Z,24.40
2022-07-31T21:16:18.819Z,24.41
2022-07-31T21:18:48.081Z,24.58
2022-07-31T21:21:16.468Z,24.64
2022-07-31T21:23:46.008Z,24.99
2022-07-31T21:26:16.332Z,24.60
2022-07-31T21:28:48.379Z,24.68
2022-07-31T21:31:17.212Z,24.41
2022-07-31T21:33:46.933Z,24.52
2022-07-31T21:36:15.818Z,23.90
2022-07-31T21:38:44.598Z,23.85
2022-07-31T21:41:13.491Z,23.95
2022-07-31T21:43:59.223Z,24.33
2022-07-31T21:46:30.585Z,24.66
2022-07-31T21:48:59.786Z,24.68
2022-07-31T21:51:28.764Z,24.36
2022-07-31T21:53:57.089Z,23.14
2022-07-31T21:56:27.057Z,23.63
2022-07-31T21:58:55.353Z,23.64
2022-07-31T22:01:23.952Z,23.57
2022-07-31T22:03:53.749Z,23.38
2022-07-31T22:06:39.549Z,23.10
2022-07-31T22:09:08.052Z,23.57
2022-07-31T22:11:36.575Z,23.85
2022-07-31T22:14:04.918Z,24.30
2022-07-31T22:16:33.267Z,24.25
2022-07-31T22:19:03.696Z,24.59
2022-07-31T22:21:32.194Z,24.69
2022-07-31T22:24:00.925Z,24.64
2022-07-31T22:26:30.835Z,24.12
2022-07-31T22:28:59.745Z,23.89
2022-07-31T22:31:28.802Z,24.05
2022-07-31T22:33:57.357Z,24.00
2022-07-31T22:36:28.106Z,24.09
2022-07-31T22:38:57.544Z,24.37
2022-07-31T22:41:25.953Z,24.49
2022-07-31T22:44:11.996Z,24.61
2022-07-31T22:46:43.278Z,24.57
2022-07-31T22:49:12.721Z,24.56
2022-07-31T22:51:46.446Z,24.54
2022-07-31T22:54:15.289Z,24.63
2022-07-31T22:56:43.647Z,24.58
2022-07-31T22:59:11.989Z,24.49
2022-07-31T23:01:40.373Z,24.54
2022-07-31T23:04:08.815Z,24.37
2022-07-31T23:06:37.148Z,24.45
2022-07-31T23:09:06.956Z,24.45
2022-07-31T23:11:35.339Z,24.36
2022-07-31T23:14:03.711Z,23.92
2022-07-31T23:16:32.230Z,24.00
2022-07-31T23:19:00.688Z,24.10
2022-07-31T23:21:29.206Z,24.00
2022-07-31T23:23:57.598Z,23.86
2022-07-31T23:26:28.244Z,23.74
2022-07-31T23:28:58.021Z,23.86
2022-07-31T23:31:26.429Z,23.40
2022-07-31T23:33:55.335Z,22.83
2022-07-31T23:36:23.893Z,22.96
2022-07-31T23:38:52.460Z,22.38
2022-07-31T23:41:41.130Z,22.82
2022-07-31T23:44:10.762Z,22.40
2022-07-31T23:46:40.380Z,22.25
2022-07-31T23:49:09.801Z,22.21
2022-07-31T23:51:38.371Z,22.57
2022-07-31T23:54:07.750Z,23.11
2022-07-31T23:56:36.249Z,23.24
2022-07-31T23:59:04.682Z,22.46
